sensor_id;sensor_type;location;lat;lon;timestamp;P1;durP1;ratioP1;P2;durP2;ratioP2
64795;SDS011;51229;51.980;6.722;2022-11-24T00:01:06;16.92;;;3.70;;
64795;SDS011;51229;51.980;6.722;2022-11-24T00:03:36;11.35;;;3.28;;
64795;SDS011;51229;51.980;6.722;2022-11-24T00:06:03;17.05;;;3.35;;
64795;SDS011;51229;51.980;6.722;2022-11-24T00:08:31;15.05;;;3.15;;
64795;SDS011;51229;51.980;6.722;2022-11-24T00:11:01;10.25;;;3.00;;
64795;SDS011;51229;51.980;6.722;2022-11-24T00:13:38;10.15;;;2.80;;
64795;SDS011;51229;51.980;6.722;2022-11-24T00:16:14;14.70;;;3.03;;
64795;SDS011;51229;51.980;6.722;2022-11-24T00:18:48;11.20;;;3.17;;
64795;SDS011;51229;51.980;6.722;2022-11-24T00:21:15;10.25;;;3.08;;
64795;SDS011;51229;51.980;6.722;2022-11-24T00:23:42;12.65;;;3.28;;
64795;SDS011;51229;51.980;6.722;2022-11-24T00:26:12;10.60;;;2.47;;
64795;SDS011;51229;51.980;6.722;2022-11-24T00:28:40;14.15;;;2.75;;
64795;SDS011;51229;51.980;6.722;2022-11-24T00:31:17;12.15;;;3.22;;
64795;SDS011;51229;51.980;6.722;2022-11-24T00:33:45;10.85;;;2.80;;
64795;SDS011;51229;51.980;6.722;2022-11-24T00:36:12;11.23;;;2.55;;
64795;SDS011;51229;51.980;6.722;2022-11-24T00:38:39;11.43;;;2.78;;
64795;SDS011;51229;51.980;6.722;2022-11-24T00:41:05;7.57;;;2.20;;
64795;SDS011;51229;51.980;6.722;2022-11-24T00:43:31;13.57;;;2.80;;
64795;SDS011;51229;51.980;6.722;2022-11-24T00:45:57;11.85;;;2.55;;
64795;SDS011;51229;51.980;6.722;2022-11-24T00:48:22;15.40;;;2.83;;
64795;SDS011;51229;51.980;6.722;2022-11-24T00:51:02;12.80;;;3.30;;
64795;SDS011;51229;51.980;6.722;2022-11-24T00:53:29;15.63;;;2.70;;
64795;SDS011;51229;51.980;6.722;2022-11-24T00:55:56;11.73;;;2.88;;
64795;SDS011;51229;51.980;6.722;2022-11-24T00:58:22;16.10;;;2.42;;
64795;SDS011;51229;51.980;6.722;2022-11-24T01:00:49;14.35;;;2.08;;
64795;SDS011;51229;51.980;6.722;2022-11-24T01:03:15;11.73;;;2.80;;
64795;SDS011;51229;51.980;6.722;2022-11-24T01:05:41;12.05;;;3.25;;
64795;SDS011;51229;51.980;6.722;2022-11-24T01:08:07;10.52;;;2.40;;
64795;SDS011;51229;51.980;6.722;2022-11-24T01:10:33;9.45;;;2.63;;
64795;SDS011;51229;51.980;6.722;2022-11-24T01:12:59;18.90;;;3.08;;
64795;SDS011;51229;51.980;6.722;2022-11-24T01:15:26;14.65;;;3.10;;
64795;SDS011;51229;51.980;6.722;2022-11-24T01:17:54;9.65;;;2.45;;
64795;SDS011;51229;51.980;6.722;2022-11-24T01:20:20;11.18;;;2.50;;
64795;SDS011;51229;51.980;6.722;2022-11-24T01:22:46;14.85;;;2.83;;
64795;SDS011;51229;51.980;6.722;2022-11-24T01:25:13;12.18;;;2.80;;
64795;SDS011;51229;51.980;6.722;2022-11-24T01:27:38;11.15;;;2.65;;
64795;SDS011;51229;51.980;6.722;2022-11-24T01:30:05;10.05;;;2.53;;
64795;SDS011;51229;51.980;6.722;2022-11-24T01:32:31;9.35;;;2.90;;
64795;SDS011;51229;51.980;6.722;2022-11-24T01:34:58;14.85;;;2.70;;
64795;SDS011;51229;51.980;6.722;2022-11-24T01:37:24;14.65;;;2.65;;
64795;SDS011;51229;51.980;6.722;2022-11-24T01:39:50;13.88;;;2.70;;
64795;SDS011;51229;51.980;6.722;2022-11-24T01:42:15;12.95;;;2.40;;
64795;SDS011;51229;51.980;6.722;2022-11-24T01:44:41;16.83;;;3.30;;
64795;SDS011;51229;51.980;6.722;2022-11-24T01:49:57;12.43;;;3.15;;
64795;SDS011;51229;51.980;6.722;2022-11-24T01:52:31;11.48;;;2.42;;
64795;SDS011;51229;51.980;6.722;2022-11-24T01:55:05;9.98;;;2.50;;
64795;SDS011;51229;51.980;6.722;2022-11-24T02:00:05;17.00;;;2.45;;
64795;SDS011;51229;51.980;6.722;2022-11-24T02:02:40;15.20;;;2.40;;
64795;SDS011;51229;51.980;6.722;2022-11-24T02:05:08;14.00;;;2.85;;
64795;SDS011;51229;51.980;6.722;2022-11-24T02:10:07;11.98;;;2.60;;
64795;SDS011;51229;51.980;6.722;2022-11-24T02:12:38;12.82;;;2.30;;
64795;SDS011;51229;51.980;6.722;2022-11-24T02:15:05;13.48;;;2.88;;
64795;SDS011;51229;51.980;6.722;2022-11-24T02:17:32;13.50;;;2.75;;
64795;SDS011;51229;51.980;6.722;2022-11-24T02:19:59;11.68;;;2.35;;
64795;SDS011;51229;51.980;6.722;2022-11-24T02:22:46;13.85;;;2.45;;
64795;SDS011;51229;51.980;6.722;2022-11-24T02:27:55;12.25;;;2.33;;
64795;SDS011;51229;51.980;6.722;2022-11-24T02:30:22;12.48;;;2.25;;
64795;SDS011;51229;51.980;6.722;2022-11-24T02:32:49;9.18;;;1.90;;
64795;SDS011;51229;51.980;6.722;2022-11-24T02:35:17;8.85;;;2.13;;
64795;SDS011;51229;51.980;6.722;2022-11-24T02:37:44;13.25;;;2.88;;
64795;SDS011;51229;51.980;6.722;2022-11-24T02:40:30;12.50;;;3.05;;
64795;SDS011;51229;51.980;6.722;2022-11-24T02:43:01;13.23;;;2.42;;
64795;SDS011;51229;51.980;6.722;2022-11-24T02:45:35;14.90;;;2.10;;
64795;SDS011;51229;51.980;6.722;2022-11-24T02:48:01;11.68;;;2.05;;
64795;SDS011;51229;51.980;6.722;2022-11-24T02:50:28;14.60;;;2.78;;
64795;SDS011;51229;51.980;6.722;2022-11-24T02:52:54;10.68;;;1.80;;
64795;SDS011;51229;51.980;6.722;2022-11-24T02:55:20;17.10;;;2.35;;
64795;SDS011;51229;51.980;6.722;2022-11-24T02:57:45;11.38;;;2.17;;
64795;SDS011;51229;51.980;6.722;2022-11-24T03:00:11;13.55;;;2.42;;
64795;SDS011;51229;51.980;6.722;2022-11-24T03:02:37;13.60;;;2.42;;
64795;SDS011;51229;51.980;6.722;2022-11-24T03:05:04;11.30;;;2.65;;
64795;SDS011;51229;51.980;6.722;2022-11-24T03:07:30;16.67;;;2.47;;
64795;SDS011;51229;51.980;6.722;2022-11-24T03:09:56;9.52;;;2.22;;
64795;SDS011;51229;51.980;6.722;2022-11-24T03:12:22;17.02;;;2.95;;
64795;SDS011;51229;51.980;6.722;2022-11-24T03:14:47;14.68;;;2.72;;
64795;SDS011;51229;51.980;6.722;2022-11-24T03:17:13;11.88;;;2.17;;
64795;SDS011;51229;51.980;6.722;2022-11-24T03:19:39;11.40;;;2.22;;
64795;SDS011;51229;51.980;6.722;2022-11-24T03:22:04;9.57;;;2.05;;
64795;SDS011;51229;51.980;6.722;2022-11-24T03:24:30;15.35;;;2.50;;
64795;SDS011;51229;51.980;6.722;2022-11-24T03:26:56;12.75;;;2.42;;
64795;SDS011;51229;51.980;6.722;2022-11-24T03:29:21;10.20;;;2.72;;
64795;SDS011;51229;51.980;6.722;2022-11-24T03:31:47;11.43;;;2.25;;
64795;SDS011;51229;51.980;6.722;2022-11-24T03:34:13;14.65;;;2.55;;
64795;SDS011;51229;51.980;6.722;2022-11-24T03:36:38;12.60;;;2.35;;
64795;SDS011;51229;51.980;6.722;2022-11-24T03:39:04;13.40;;;2.53;;
64795;SDS011;51229;51.980;6.722;2022-11-24T03:41:31;15.73;;;2.85;;
64795;SDS011;51229;51.980;6.722;2022-11-24T03:43:57;12.90;;;2.33;;
64795;SDS011;51229;51.980;6.722;2022-11-24T03:46:22;12.48;;;2.17;;
64795;SDS011;51229;51.980;6.722;2022-11-24T03:48:48;16.85;;;2.42;;
64795;SDS011;51229;51.980;6.722;2022-11-24T03:51:14;12.10;;;1.83;;
64795;SDS011;51229;51.980;6.722;2022-11-24T03:53:39;15.35;;;2.78;;
64795;SDS011;51229;51.980;6.722;2022-11-24T03:56:05;16.88;;;2.28;;
64795;SDS011;51229;51.980;6.722;2022-11-24T03:58:31;10.98;;;2.13;;
64795;SDS011;51229;51.980;6.722;2022-11-24T04:00:57;16.45;;;2.60;;
64795;SDS011;51229;51.980;6.722;2022-11-24T04:03:23;11.00;;;2.50;;
64795;SDS011;51229;51.980;6.722;2022-11-24T04:05:49;15.27;;;2.20;;
64795;SDS011;51229;51.980;6.722;2022-11-24T04:08:15;9.15;;;2.35;;
64795;SDS011;51229;51.980;6.722;2022-11-24T04:10:42;17.73;;;2.97;;
64795;SDS011;51229;51.980;6.722;2022-11-24T04:13:11;15.27;;;2.70;;
64795;SDS011;51229;51.980;6.722;2022-11-24T04:15:39;11.30;;;2.50;;
64795;SDS011;51229;51.980;6.722;2022-11-24T04:18:05;14.40;;;2.42;;
64795;SDS011;51229;51.980;6.722;2022-11-24T04:20:32;11.05;;;1.88;;
64795;SDS011;51229;51.980;6.722;2022-11-24T04:22:57;15.90;;;2.50;;
64795;SDS011;51229;51.980;6.722;2022-11-24T04:25:23;11.88;;;2.28;;
64795;SDS011;51229;51.980;6.722;2022-11-24T04:27:49;15.27;;;2.67;;
64795;SDS011;51229;51.980;6.722;2022-11-24T04:30:16;12.07;;;2.22;;
64795;SDS011;51229;51.980;6.722;2022-11-24T04:32:42;13.85;;;2.53;;
64795;SDS011;51229;51.980;6.722;2022-11-24T04:35:08;13.27;;;2.50;;
64795;SDS011;51229;51.980;6.722;2022-11-24T04:37:34;13.43;;;2.72;;
64795;SDS011;51229;51.980;6.722;2022-11-24T04:40:00;11.75;;;2.30;;
64795;SDS011;51229;51.980;6.722;2022-11-24T04:42:25;21.05;;;2.97;;
64795;SDS011;51229;51.980;6.722;2022-11-24T04:44:51;11.13;;;2.60;;
64795;SDS011;51229;51.980;6.722;2022-11-24T04:47:19;12.20;;;2.20;;
64795;SDS011;51229;51.980;6.722;2022-11-24T04:49:46;12.40;;;2.60;;
64795;SDS011;51229;51.980;6.722;2022-11-24T04:52:13;14.52;;;2.45;;
64795;SDS011;51229;51.980;6.722;2022-11-24T04:54:39;15.52;;;2.75;;
64795;SDS011;51229;51.980;6.722;2022-11-24T04:57:05;13.40;;;2.35;;
64795;SDS011;51229;51.980;6.722;2022-11-24T04:59:31;16.98;;;2.78;;
64795;SDS011;51229;51.980;6.722;2022-11-24T05:01:56;15.88;;;2.58;;
64795;SDS011;51229;51.980;6.722;2022-11-24T05:04:22;20.60;;;2.90;;
64795;SDS011;51229;51.980;6.722;2022-11-24T05:06:48;19.27;;;3.42;;
64795;SDS011;51229;51.980;6.722;2022-11-24T05:09:14;15.50;;;2.47;;
64795;SDS011;51229;51.980;6.722;2022-11-24T05:11:41;16.90;;;3.33;;
64795;SDS011;51229;51.980;6.722;2022-11-24T05:14:07;11.80;;;2.72;;
64795;SDS011;51229;51.980;6.722;2022-11-24T05:16:33;15.65;;;2.83;;
64795;SDS011;51229;51.980;6.722;2022-11-24T05:18:59;15.70;;;3.22;;
64795;SDS011;51229;51.980;6.722;2022-11-24T05:21:24;21.15;;;3.08;;
64795;SDS011;51229;51.980;6.722;2022-11-24T05:23:51;14.20;;;2.60;;
64795;SDS011;51229;51.980;6.722;2022-11-24T05:26:17;19.77;;;2.63;;
64795;SDS011;51229;51.980;6.722;2022-11-24T05:28:43;20.35;;;2.90;;
64795;SDS011;51229;51.980;6.722;2022-11-24T05:31:08;19.90;;;2.50;;
64795;SDS011;51229;51.980;6.722;2022-11-24T05:33:34;12.88;;;2.75;;
64795;SDS011;51229;51.980;6.722;2022-11-24T05:36:04;13.15;;;3.20;;
64795;SDS011;51229;51.980;6.722;2022-11-24T05:38:31;14.57;;;2.80;;
64795;SDS011;51229;51.980;6.722;2022-11-24T05:41:00;13.93;;;3.53;;
64795;SDS011;51229;51.980;6.722;2022-11-24T05:43:29;15.38;;;2.33;;
64795;SDS011;51229;51.980;6.722;2022-11-24T05:45:59;14.80;;;3.58;;
64795;SDS011;51229;51.980;6.722;2022-11-24T05:48:25;13.80;;;2.80;;
64795;SDS011;51229;51.980;6.722;2022-11-24T05:50:54;18.48;;;2.88;;
64795;SDS011;51229;51.980;6.722;2022-11-24T05:53:21;19.08;;;3.00;;
64795;SDS011;51229;51.980;6.722;2022-11-24T05:55:47;19.33;;;3.22;;
64795;SDS011;51229;51.980;6.722;2022-11-24T05:58:13;20.60;;;3.10;;
64795;SDS011;51229;51.980;6.722;2022-11-24T06:00:39;16.55;;;3.30;;
64795;SDS011;51229;51.980;6.722;2022-11-24T06:03:04;15.45;;;2.97;;
64795;SDS011;51229;51.980;6.722;2022-11-24T06:05:30;14.40;;;3.25;;
64795;SDS011;51229;51.980;6.722;2022-11-24T06:07:57;14.27;;;2.90;;
64795;SDS011;51229;51.980;6.722;2022-11-24T06:10:23;18.35;;;2.97;;
64795;SDS011;51229;51.980;6.722;2022-11-24T06:12:49;13.68;;;3.20;;
64795;SDS011;51229;51.980;6.722;2022-11-24T06:15:15;17.48;;;3.15;;
64795;SDS011;51229;51.980;6.722;2022-11-24T06:17:41;12.60;;;3.58;;
64795;SDS011;51229;51.980;6.722;2022-11-24T06:20:07;14.85;;;2.60;;
64795;SDS011;51229;51.980;6.722;2022-11-24T06:22:35;10.75;;;2.78;;
64795;SDS011;51229;51.980;6.722;2022-11-24T06:25:02;9.27;;;2.60;;
64795;SDS011;51229;51.980;6.722;2022-11-24T06:27:28;19.85;;;3.15;;
64795;SDS011;51229;51.980;6.722;2022-11-24T06:29:54;11.60;;;2.78;;
64795;SDS011;51229;51.980;6.722;2022-11-24T06:32:22;14.55;;;3.28;;
64795;SDS011;51229;51.980;6.722;2022-11-24T06:34:51;12.82;;;2.63;;
64795;SDS011;51229;51.980;6.722;2022-11-24T06:37:17;19.83;;;3.42;;
64795;SDS011;51229;51.980;6.722;2022-11-24T06:39:45;14.07;;;2.72;;
64795;SDS011;51229;51.980;6.722;2022-11-24T06:42:18;14.82;;;2.78;;
64795;SDS011;51229;51.980;6.722;2022-11-24T06:44:48;13.15;;;3.55;;
64795;SDS011;51229;51.980;6.722;2022-11-24T06:47:17;10.07;;;2.22;;
64795;SDS011;51229;51.980;6.722;2022-11-24T06:49:42;11.68;;;2.20;;
64795;SDS011;51229;51.980;6.722;2022-11-24T06:52:08;13.15;;;3.22;;
64795;SDS011;51229;51.980;6.722;2022-11-24T06:54:34;11.52;;;3.28;;
64795;SDS011;51229;51.980;6.722;2022-11-24T06:57:05;14.35;;;2.47;;
64795;SDS011;51229;51.980;6.722;2022-11-24T06:59:31;11.70;;;2.55;;
64795;SDS011;51229;51.980;6.722;2022-11-24T07:01:57;9.93;;;2.22;;
64795;SDS011;51229;51.980;6.722;2022-11-24T07:04:23;8.10;;;2.67;;
64795;SDS011;51229;51.980;6.722;2022-11-24T07:06:48;8.63;;;2.30;;
64795;SDS011;51229;51.980;6.722;2022-11-24T07:09:14;8.10;;;2.65;;
64795;SDS011;51229;51.980;6.722;2022-11-24T07:11:40;9.27;;;2.45;;
64795;SDS011;51229;51.980;6.722;2022-11-24T07:14:06;9.05;;;2.42;;
64795;SDS011;51229;51.980;6.722;2022-11-24T07:16:32;9.52;;;2.75;;
64795;SDS011;51229;51.980;6.722;2022-11-24T07:18:58;12.43;;;2.42;;
64795;SDS011;51229;51.980;6.722;2022-11-24T07:21:24;11.27;;;2.80;;
64795;SDS011;51229;51.980;6.722;2022-11-24T07:23:52;11.95;;;2.17;;
64795;SDS011;51229;51.980;6.722;2022-11-24T07:26:19;8.80;;;2.13;;
64795;SDS011;51229;51.980;6.722;2022-11-24T07:28:45;11.32;;;3.10;;
64795;SDS011;51229;51.980;6.722;2022-11-24T07:31:11;7.47;;;1.98;;
64795;SDS011;51229;51.980;6.722;2022-11-24T07:33:39;9.68;;;3.00;;
64795;SDS011;51229;51.980;6.722;2022-11-24T07:36:05;10.93;;;2.60;;
64795;SDS011;51229;51.980;6.722;2022-11-24T07:38:33;11.68;;;2.40;;
64795;SDS011;51229;51.980;6.722;2022-11-24T07:40:59;10.15;;;2.20;;
64795;SDS011;51229;51.980;6.722;2022-11-24T07:43:30;7.72;;;2.28;;
64795;SDS011;51229;51.980;6.722;2022-11-24T07:45:57;7.53;;;2.50;;
64795;SDS011;51229;51.980;6.722;2022-11-24T07:48:22;10.07;;;2.55;;
64795;SDS011;51229;51.980;6.722;2022-11-24T07:50:48;7.32;;;2.80;;
64795;SDS011;51229;51.980;6.722;2022-11-24T07:53:14;12.77;;;2.65;;
64795;SDS011;51229;51.980;6.722;2022-11-24T07:55:40;13.50;;;2.55;;
64795;SDS011;51229;51.980;6.722;2022-11-24T07:58:06;12.30;;;2.75;;
64795;SDS011;51229;51.980;6.722;2022-11-24T08:00:31;12.35;;;3.65;;
64795;SDS011;51229;51.980;6.722;2022-11-24T08:02:57;8.63;;;2.92;;
64795;SDS011;51229;51.980;6.722;2022-11-24T08:05:23;9.55;;;2.25;;
64795;SDS011;51229;51.980;6.722;2022-11-24T08:07:49;9.60;;;2.67;;
64795;SDS011;51229;51.980;6.722;2022-11-24T08:10:14;9.77;;;2.88;;
64795;SDS011;51229;51.980;6.722;2022-11-24T08:12:40;9.73;;;3.00;;
64795;SDS011;51229;51.980;6.722;2022-11-24T08:15:06;13.65;;;2.90;;
64795;SDS011;51229;51.980;6.722;2022-11-24T08:17:33;10.40;;;2.88;;
64795;SDS011;51229;51.980;6.722;2022-11-24T08:19:58;13.25;;;2.90;;
64795;SDS011;51229;51.980;6.722;2022-11-24T08:22:24;11.63;;;3.13;;
64795;SDS011;51229;51.980;6.722;2022-11-24T08:24:50;11.48;;;3.60;;
64795;SDS011;51229;51.980;6.722;2022-11-24T08:27:16;8.95;;;3.75;;
64795;SDS011;51229;51.980;6.722;2022-11-24T08:29:43;11.00;;;3.63;;
64795;SDS011;51229;51.980;6.722;2022-11-24T08:32:09;12.30;;;4.28;;
64795;SDS011;51229;51.980;6.722;2022-11-24T08:34:35;12.73;;;4.22;;
64795;SDS011;51229;51.980;6.722;2022-11-24T08:37:02;18.60;;;4.63;;
64795;SDS011;51229;51.980;6.722;2022-11-24T08:39:28;16.63;;;4.35;;
64795;SDS011;51229;51.980;6.722;2022-11-24T08:41:54;12.13;;;4.15;;
64795;SDS011;51229;51.980;6.722;2022-11-24T08:44:20;16.90;;;4.70;;
64795;SDS011;51229;51.980;6.722;2022-11-24T08:46:46;18.92;;;5.97;;
64795;SDS011;51229;51.980;6.722;2022-11-24T08:49:12;19.15;;;4.90;;
64795;SDS011;51229;51.980;6.722;2022-11-24T08:51:39;16.95;;;5.43;;
64795;SDS011;51229;51.980;6.722;2022-11-24T08:54:04;18.88;;;4.95;;
64795;SDS011;51229;51.980;6.722;2022-11-24T08:56:31;14.63;;;4.75;;
64795;SDS011;51229;51.980;6.722;2022-11-24T08:58:58;19.80;;;5.43;;
64795;SDS011;51229;51.980;6.722;2022-11-24T09:01:24;13.50;;;5.55;;
64795;SDS011;51229;51.980;6.722;2022-11-24T09:03:50;15.07;;;5.00;;
64795;SDS011;51229;51.980;6.722;2022-11-24T09:06:21;18.40;;;5.72;;
64795;SDS011;51229;51.980;6.722;2022-11-24T09:08:49;20.90;;;5.25;;
64795;SDS011;51229;51.980;6.722;2022-11-24T09:11:16;13.60;;;4.97;;
64795;SDS011;51229;51.980;6.722;2022-11-24T09:13:42;16.58;;;5.20;;
64795;SDS011;51229;51.980;6.722;2022-11-24T09:16:09;17.88;;;6.22;;
64795;SDS011;51229;51.980;6.722;2022-11-24T09:18:36;18.33;;;5.82;;
64795;SDS011;51229;51.980;6.722;2022-11-24T09:21:18;19.90;;;5.80;;
64795;SDS011;51229;51.980;6.722;2022-11-24T09:23:46;19.73;;;5.55;;
64795;SDS011;51229;51.980;6.722;2022-11-24T09:26:14;15.30;;;5.45;;
64795;SDS011;51229;51.980;6.722;2022-11-24T09:28:44;19.52;;;5.28;;
64795;SDS011;51229;51.980;6.722;2022-11-24T09:31:11;23.77;;;6.63;;
64795;SDS011;51229;51.980;6.722;2022-11-24T09:33:38;15.13;;;5.22;;
64795;SDS011;51229;51.980;6.722;2022-11-24T09:36:04;19.90;;;6.22;;
64795;SDS011;51229;51.980;6.722;2022-11-24T09:38:30;15.38;;;5.43;;
64795;SDS011;51229;51.980;6.722;2022-11-24T09:41:02;16.77;;;5.80;;
64795;SDS011;51229;51.980;6.722;2022-11-24T09:43:50;16.20;;;4.65;;
64795;SDS011;51229;51.980;6.722;2022-11-24T09:47:08;18.33;;;6.53;;
64795;SDS011;51229;51.980;6.722;2022-11-24T09:49:17;12.75;;;5.68;;
64795;SDS011;51229;51.980;6.722;2022-11-24T09:52:09;19.10;;;7.43;;
64795;SDS011;51229;51.980;6.722;2022-11-24T09:54:40;20.52;;;6.18;;
64795;SDS011;51229;51.980;6.722;2022-11-24T09:57:17;11.32;;;4.88;;
64795;SDS011;51229;51.980;6.722;2022-11-24T09:59:45;9.60;;;4.50;;
64795;SDS011;51229;51.980;6.722;2022-11-24T10:02:11;9.18;;;2.95;;
64795;SDS011;51229;51.980;6.722;2022-11-24T10:04:44;12.65;;;4.25;;
64795;SDS011;51229;51.980;6.722;2022-11-24T10:07:21;13.38;;;4.18;;
64795;SDS011;51229;51.980;6.722;2022-11-24T10:12:27;9.35;;;3.63;;
64795;SDS011;51229;51.980;6.722;2022-11-24T10:15:03;11.68;;;3.45;;
64795;SDS011;51229;51.980;6.722;2022-11-24T10:20:30;7.82;;;2.75;;
64795;SDS011;51229;51.980;6.722;2022-11-24T10:25:48;6.68;;;2.35;;
64795;SDS011;51229;51.980;6.722;2022-11-24T10:28:20;13.48;;;3.53;;
64795;SDS011;51229;51.980;6.722;2022-11-24T10:30:49;13.07;;;3.05;;
64795;SDS011;51229;51.980;6.722;2022-11-24T10:33:18;12.23;;;2.78;;
64795;SDS011;51229;51.980;6.722;2022-11-24T10:38:15;9.48;;;2.97;;
64795;SDS011;51229;51.980;6.722;2022-11-24T10:40:56;10.37;;;2.80;;
64795;SDS011;51229;51.980;6.722;2022-11-24T10:43:29;11.18;;;3.20;;
64795;SDS011;51229;51.980;6.722;2022-11-24T10:48:37;11.07;;;2.70;;
64795;SDS011;51229;51.980;6.722;2022-11-24T10:54:25;12.43;;;3.55;;
64795;SDS011;51229;51.980;6.722;2022-11-24T10:56:51;10.32;;;2.88;;
64795;SDS011;51229;51.980;6.722;2022-11-24T10:59:19;9.52;;;2.75;;
64795;SDS011;51229;51.980;6.722;2022-11-24T11:01:46;10.65;;;2.40;;
64795;SDS011;51229;51.980;6.722;2022-11-24T11:04:18;10.00;;;2.72;;
64795;SDS011;51229;51.980;6.722;2022-11-24T11:06:46;8.00;;;2.42;;
64795;SDS011;51229;51.980;6.722;2022-11-24T11:11:37;12.35;;;3.17;;
64795;SDS011;51229;51.980;6.722;2022-11-24T11:14:04;9.57;;;2.67;;
64795;SDS011;51229;51.980;6.722;2022-11-24T11:16:41;10.30;;;2.72;;
64795;SDS011;51229;51.980;6.722;2022-11-24T11:24:36;6.75;;;2.55;;
64795;SDS011;51229;51.980;6.722;2022-11-24T11:29:42;10.65;;;2.20;;
64795;SDS011;51229;51.980;6.722;2022-11-24T11:32:15;7.65;;;2.65;;
64795;SDS011;51229;51.980;6.722;2022-11-24T11:34:46;9.50;;;2.38;;
64795;SDS011;51229;51.980;6.722;2022-11-24T11:37:13;9.88;;;2.80;;
64795;SDS011;51229;51.980;6.722;2022-11-24T11:39:40;6.85;;;2.88;;
64795;SDS011;51229;51.980;6.722;2022-11-24T11:42:29;10.60;;;2.17;;
64795;SDS011;51229;51.980;6.722;2022-11-24T11:50:16;10.30;;;2.83;;
64795;SDS011;51229;51.980;6.722;2022-11-24T11:52:49;9.60;;;2.30;;
64795;SDS011;51229;51.980;6.722;2022-11-24T11:55:31;9.43;;;2.67;;
64795;SDS011;51229;51.980;6.722;2022-11-24T11:58:22;8.18;;;2.40;;
64795;SDS011;51229;51.980;6.722;2022-11-24T12:01:14;12.98;;;2.55;;
64795;SDS011;51229;51.980;6.722;2022-11-24T12:09:55;9.23;;;2.15;;
64795;SDS011;51229;51.980;6.722;2022-11-24T12:12:50;11.65;;;2.78;;
64795;SDS011;51229;51.980;6.722;2022-11-24T12:15:31;9.70;;;2.17;;
64795;SDS011;51229;51.980;6.722;2022-11-24T12:18:23;9.32;;;2.50;;
64795;SDS011;51229;51.980;6.722;2022-11-24T12:21:17;9.65;;;2.35;;
64795;SDS011;51229;51.980;6.722;2022-11-24T12:24:03;12.07;;;3.05;;
64795;SDS011;51229;51.980;6.722;2022-11-24T12:29:27;9.43;;;2.58;;
64795;SDS011;51229;51.980;6.722;2022-11-24T12:44:04;9.63;;;2.65;;
64795;SDS011;51229;51.980;6.722;2022-11-24T12:52:52;12.80;;;2.60;;
64795;SDS011;51229;51.980;6.722;2022-11-24T12:55:16;12.18;;;2.75;;
64795;SDS011;51229;51.980;6.722;2022-11-24T12:57:53;13.35;;;2.67;;
64795;SDS011;51229;51.980;6.722;2022-11-24T13:00:52;11.00;;;2.70;;
64795;SDS011;51229;51.980;6.722;2022-11-24T13:03:28;10.27;;;2.85;;
64795;SDS011;51229;51.980;6.722;2022-11-24T13:06:00;9.35;;;2.80;;
64795;SDS011;51229;51.980;6.722;2022-11-24T13:08:27;13.05;;;2.53;;
64795;SDS011;51229;51.980;6.722;2022-11-24T13:11:12;10.88;;;2.92;;
64795;SDS011;51229;51.980;6.722;2022-11-24T13:16:46;11.73;;;2.97;;
64795;SDS011;51229;51.980;6.722;2022-11-24T13:19:14;12.15;;;2.97;;
64795;SDS011;51229;51.980;6.722;2022-11-24T13:39:55;9.75;;;2.50;;
64795;SDS011;51229;51.980;6.722;2022-11-24T13:42:30;13.13;;;2.13;;
64795;SDS011;51229;51.980;6.722;2022-11-24T13:53:35;8.48;;;2.00;;
64795;SDS011;51229;51.980;6.722;2022-11-24T13:58:40;9.43;;;2.30;;
64795;SDS011;51229;51.980;6.722;2022-11-24T14:01:10;6.97;;;2.08;;
64795;SDS011;51229;51.980;6.722;2022-11-24T14:03:40;18.33;;;3.20;;
64795;SDS011;51229;51.980;6.722;2022-11-24T14:06:15;13.65;;;2.90;;
64795;SDS011;51229;51.980;6.722;2022-11-24T14:09:02;15.88;;;3.72;;
64795;SDS011;51229;51.980;6.722;2022-11-24T14:12:05;13.25;;;2.60;;
64795;SDS011;51229;51.980;6.722;2022-11-24T14:14:42;11.90;;;2.65;;
64795;SDS011;51229;51.980;6.722;2022-11-24T14:19:40;7.47;;;2.38;;
64795;SDS011;51229;51.980;6.722;2022-11-24T14:22:11;14.02;;;2.58;;
64795;SDS011;51229;51.980;6.722;2022-11-24T14:27:21;10.85;;;2.40;;
64795;SDS011;51229;51.980;6.722;2022-11-24T14:30:38;13.25;;;2.83;;
64795;SDS011;51229;51.980;6.722;2022-11-24T14:32:51;9.85;;;2.40;;
64795;SDS011;51229;51.980;6.722;2022-11-24T14:35:31;11.65;;;2.50;;
64795;SDS011;51229;51.980;6.722;2022-11-24T14:38:00;12.73;;;2.53;;
64795;SDS011;51229;51.980;6.722;2022-11-24T14:45:49;13.65;;;2.88;;
64795;SDS011;51229;51.980;6.722;2022-11-24T14:48:15;11.10;;;2.53;;
64795;SDS011;51229;51.980;6.722;2022-11-24T14:50:47;10.50;;;2.42;;
64795;SDS011;51229;51.980;6.722;2022-11-24T14:53:14;14.52;;;3.08;;
64795;SDS011;51229;51.980;6.722;2022-11-24T14:56:05;10.27;;;2.45;;
64795;SDS011;51229;51.980;6.722;2022-11-24T14:58:44;10.80;;;2.40;;
64795;SDS011;51229;51.980;6.722;2022-11-24T15:01:31;13.95;;;3.30;;
64795;SDS011;51229;51.980;6.722;2022-11-24T15:04:10;11.45;;;2.80;;
64795;SDS011;51229;51.980;6.722;2022-11-24T15:06:49;10.80;;;2.50;;
64795;SDS011;51229;51.980;6.722;2022-11-24T15:09:59;16.02;;;3.10;;
64795;SDS011;51229;51.980;6.722;2022-11-24T15:14:59;15.73;;;2.70;;
64795;SDS011;51229;51.980;6.722;2022-11-24T15:17:54;12.05;;;2.90;;
64795;SDS011;51229;51.980;6.722;2022-11-24T15:20:25;12.65;;;3.00;;
64795;SDS011;51229;51.980;6.722;2022-11-24T15:23:24;9.23;;;2.67;;
64795;SDS011;51229;51.980;6.722;2022-11-24T15:25:52;15.05;;;3.25;;
64795;SDS011;51229;51.980;6.722;2022-11-24T15:28:18;10.23;;;3.38;;
64795;SDS011;51229;51.980;6.722;2022-11-24T15:30:49;13.35;;;2.90;;
64795;SDS011;51229;51.980;6.722;2022-11-24T15:33:20;10.82;;;2.63;;
64795;SDS011;51229;51.980;6.722;2022-11-24T15:35:46;10.90;;;4.45;;
64795;SDS011;51229;51.980;6.722;2022-11-24T15:38:12;11.48;;;3.05;;
64795;SDS011;51229;51.980;6.722;2022-11-24T15:40:39;14.32;;;3.30;;
64795;SDS011;51229;51.980;6.722;2022-11-24T15:43:18;14.25;;;3.30;;
64795;SDS011;51229;51.980;6.722;2022-11-24T15:45:52;11.85;;;3.65;;
64795;SDS011;51229;51.980;6.722;2022-11-24T15:48:18;9.57;;;2.80;;
64795;SDS011;51229;51.980;6.722;2022-11-24T15:50:45;12.90;;;3.38;;
64795;SDS011;51229;51.980;6.722;2022-11-24T15:53:18;14.05;;;3.03;;
64795;SDS011;51229;51.980;6.722;2022-11-24T15:55:50;12.57;;;3.13;;
64795;SDS011;51229;51.980;6.722;2022-11-24T15:58:16;14.60;;;3.85;;
64795;SDS011;51229;51.980;6.722;2022-11-24T16:00:42;10.38;;;3.05;;
64795;SDS011;51229;51.980;6.722;2022-11-24T16:03:08;14.57;;;3.78;;
64795;SDS011;51229;51.980;6.722;2022-11-24T16:05:35;11.40;;;4.13;;
64795;SDS011;51229;51.980;6.722;2022-11-24T16:08:02;17.15;;;7.00;;
64795;SDS011;51229;51.980;6.722;2022-11-24T16:10:38;17.90;;;7.28;;
64795;SDS011;51229;51.980;6.722;2022-11-24T16:13:06;15.90;;;5.80;;
64795;SDS011;51229;51.980;6.722;2022-11-24T16:15:32;16.73;;;6.50;;
64795;SDS011;51229;51.980;6.722;2022-11-24T16:17:58;22.85;;;6.60;;
64795;SDS011;51229;51.980;6.722;2022-11-24T16:20:23;15.00;;;5.65;;
64795;SDS011;51229;51.980;6.722;2022-11-24T16:22:49;15.23;;;4.95;;
64795;SDS011;51229;51.980;6.722;2022-11-24T16:25:15;14.68;;;6.07;;
64795;SDS011;51229;51.980;6.722;2022-11-24T16:27:41;22.42;;;5.35;;
64795;SDS011;51229;51.980;6.722;2022-11-24T16:30:07;13.20;;;5.90;;
64795;SDS011;51229;51.980;6.722;2022-11-24T16:32:35;18.83;;;6.32;;
64795;SDS011;51229;51.980;6.722;2022-11-24T16:35:01;16.35;;;5.93;;
64795;SDS011;51229;51.980;6.722;2022-11-24T16:37:26;16.35;;;6.22;;
64795;SDS011;51229;51.980;6.722;2022-11-24T16:39:52;18.60;;;6.28;;
64795;SDS011;51229;51.980;6.722;2022-11-24T16:42:18;16.92;;;5.57;;
64795;SDS011;51229;51.980;6.722;2022-11-24T16:44:43;18.17;;;5.72;;